createdAt,value
2022-10-18T00:00:55.147Z,100706.69
2022-10-18T00:01:58.433Z,100708.22
2022-10-18T00:03:00.625Z,100707.84
2022-10-18T00:04:10.480Z,100712.13
2022-10-18T00:05:13.735Z,100706.19
2022-10-18T00:06:15.750Z,100706.69
2022-10-18T00:07:17.830Z,100697.63
2022-10-18T00:08:21.485Z,100701.53
2022-10-18T00:09:23.736Z,100692.88
2022-10-18T00:10:26.578Z,100691.38
2022-10-18T00:11:31.536Z,100696.47
2022-10-18T00:12:36.200Z,100696.19
2022-10-18T00:13:38.900Z,100685.91
2022-10-18T00:14:41.273Z,100687.44
2022-10-18T00:15:52.075Z,100680.41
2022-10-18T00:16:54.903Z,100673.28
2022-10-18T00:17:57.161Z,100666.50
2022-10-18T00:19:04.845Z,100670.09
2022-10-18T00:20:07.873Z,100669.44
2022-10-18T00:21:17.231Z,100659.03
2022-10-18T00:22:20.431Z,100667.59
2022-10-18T00:23:23.867Z,100670.78
2022-10-18T00:24:27.220Z,100680.16
2022-10-18T00:25:29.184Z,100685.34
2022-10-18T00:26:31.723Z,100685.84
2022-10-18T00:27:35.011Z,100674.78
2022-10-18T00:28:39.181Z,100677.56
2022-10-18T00:29:41.201Z,100671.78
2022-10-18T00:30:43.722Z,100659.91
2022-10-18T00:31:45.830Z,100654.31
2022-10-18T00:32:49.272Z,100661.44
2022-10-18T00:33:54.544Z,100660.19
2022-10-18T00:35:04.611Z,100657.06
2022-10-18T00:36:07.572Z,100649.59
2022-10-18T00:37:09.724Z,100656.84
2022-10-18T00:38:11.979Z,100651.34
2022-10-18T00:39:20.202Z,100648.56
2022-10-18T00:40:23.621Z,100652.84
2022-10-18T00:41:29.277Z,100648.94
2022-10-18T00:42:34.536Z,100649.31
2022-10-18T00:44:02.597Z,100653.75
2022-10-18T00:45:19.799Z,100637.88
2022-10-18T00:46:22.644Z,100639.13
2022-10-18T00:47:24.895Z,100644.28
2022-10-18T00:48:26.901Z,100633.22
2022-10-18T00:49:52.962Z,100635.13
2022-10-18T00:50:55.637Z,100638.84
2022-10-18T00:52:05.257Z,100628.75
2022-10-18T00:53:18.647Z,100631.66
2022-10-18T00:54:21.333Z,100628.06
2022-10-18T00:55:26.048Z,100626.38
2022-10-18T00:56:32.675Z,100622.38
2022-10-18T00:57:35.480Z,100620.59
2022-10-18T00:58:38.535Z,100622.47
2022-10-18T00:59:41.795Z,100618.09
2022-10-18T01:00:46.862Z,100621.22
2022-10-18T01:01:49.820Z,100617.75
2022-10-18T01:02:52.660Z,100618.56
2022-10-18T01:03:57.383Z,100611.41
2022-10-18T01:05:02.742Z,100617.41
2022-10-18T01:06:05.005Z,100618.84
2022-10-18T01:07:32.255Z,100613.94
2022-10-18T01:08:53.297Z,100617.00
2022-10-18T01:10:14.526Z,100611.41
2022-10-18T01:11:26.565Z,100611.63
2022-10-18T01:13:02.397Z,100615.06
2022-10-18T01:14:29.267Z,100619.38
2022-10-18T01:15:42.820Z,100619.25
2022-10-18T01:16:56.122Z,100614.22
2022-10-18T01:18:08.156Z,100615.31
2022-10-18T01:19:45.192Z,100611.41
2022-10-18T01:21:25.283Z,100613.66
2022-10-18T01:22:33.235Z,100613.28
2022-10-18T01:24:02.226Z,100623.09
2022-10-18T01:25:26.408Z,100619.88
2022-10-18T01:27:08.825Z,100622.22
2022-10-18T01:28:39.448Z,100623.53
2022-10-18T01:30:12.132Z,100621.53
2022-10-18T01:31:22.517Z,100618.41
2022-10-18T01:32:33.000Z,100621.06
2022-10-18T01:34:06.131Z,100622.59
2022-10-18T01:35:15.155Z,100623.41
2022-10-18T01:36:28.584Z,100623.84
2022-10-18T01:37:33.269Z,100621.31
2022-10-18T01:38:39.865Z,100617.31
2022-10-18T01:39:45.961Z,100615.44
2022-10-18T01:40:51.896Z,100608.31
2022-10-18T01:41:56.128Z,100603.81
2022-10-18T01:43:04.202Z,100599.22
2022-10-18T01:44:16.127Z,100597.13
2022-10-18T01:45:21.575Z,100598.69
2022-10-18T01:46:26.594Z,100598.44
2022-10-18T01:47:29.994Z,100602.78
2022-10-18T01:48:32.419Z,100600.50
2022-10-18T01:49:35.859Z,100596.41
2022-10-18T01:50:38.266Z,100594.78
2022-10-18T01:51:40.282Z,100584.97
2022-10-18T01:52:52.214Z,100587.81
2022-10-18T01:53:54.621Z,100587.56
2022-10-18T01:54:58.521Z,100589.97
2022-10-18T01:56:04.257Z,100595.84
2022-10-18T01:57:23.591Z,100586.84
2022-10-18T01:58:36.590Z,100586.13
2022-10-18T01:59:55.246Z,100585.84
2022-10-18T02:01:18.446Z,100583.16
2022-10-18T02:02:32.772Z,100578.41
2022-10-18T02:03:43.499Z,100576.66
2022-10-18T02:04:54.551Z,100571.22
2022-10-18T02:06:19.439Z,100568.97
2022-10-18T02:07:27.502Z,100568.81
2022-10-18T02:08:37.700Z,100575.72
2022-10-18T02:09:52.840Z,100568.22
2022-10-18T02:11:05.145Z,100569.75
2022-10-18T02:12:11.150Z,100567.66
2022-10-18T02:13:19.055Z,100573.72
2022-10-18T02:14:25.798Z,100570.41
2022-10-18T02:15:43.209Z,100569.97
2022-10-18T02:16:54.845Z,100563.44
2022-10-18T02:17:58.184Z,100561.97
2022-10-18T02:19:15.917Z,100557.84
2022-10-18T02:20:24.799Z,100548.47
2022-10-18T02:21:29.823Z,100557.47
2022-10-18T02:22:34.812Z,100566.59
2022-10-18T02:23:38.742Z,100562.28
2022-10-18T02:24:52.423Z,100564.31
2022-10-18T02:25:54.936Z,100564.31
2022-10-18T02:26:57.381Z,100567.88
2022-10-18T02:27:59.664Z,100558.78
2022-10-18T02:29:02.085Z,100558.06
2022-10-18T02:30:05.653Z,100555.59
2022-10-18T02:31:18.029Z,100560.47
2022-10-18T02:32:39.683Z,100563.53
2022-10-18T02:34:01.519Z,100555.59
2022-10-18T02:35:11.100Z,100547.03
2022-10-18T02:36:24.023Z,100550.31
2022-10-18T02:37:32.981Z,100546.81
2022-10-18T02:38:36.154Z,100554.41
2022-10-18T02:39:46.031Z,100549.34
2022-10-18T02:40:48.133Z,100549.94
2022-10-18T02:41:51.798Z,100540.34
2022-10-18T02:42:58.362Z,100535.59
2022-10-18T02:44:03.515Z,100537.22
2022-10-18T02:45:07.694Z,100539.59
2022-10-18T02:46:09.782Z,100548.25
2022-10-18T02:47:12.783Z,100538.88
2022-10-18T02:48:14.877Z,100533.00
2022-10-18T02:49:16.866Z,100526.38
2022-10-18T02:50:19.271Z,100525.44
2022-10-18T02:51:21.902Z,100523.47
2022-10-18T02:52:24.240Z,100523.84
2022-10-18T02:53:26.246Z,100525.78
2022-10-18T02:54:29.664Z,100522.25
2022-10-18T02:55:31.670Z,100517.50
2022-10-18T02:56:33.708Z,100530.16
2022-10-18T02:57:36.523Z,100528.78
2022-10-18T02:58:39.590Z,100528.31
2022-10-18T02:59:41.527Z,100519.69
2022-10-18T03:00:43.459Z,100511.91
2022-10-18T03:01:48.885Z,100507.53
2022-10-18T03:02:53.082Z,100507.19
2022-10-18T03:03:55.844Z,100497.59
2022-10-18T03:05:00.028Z,100499.22
2022-10-18T03:06:02.101Z,100498.47
2022-10-18T03:07:04.419Z,100498.19
2022-10-18T03:08:06.512Z,100494.56
2022-10-18T03:09:10.098Z,100496.16
2022-10-18T03:10:12.046Z,100485.97
2022-10-18T03:11:16.261Z,100489.19
2022-10-18T03:12:19.912Z,100482.13
2022-10-18T03:13:22.295Z,100482.06
2022-10-18T03:14:24.798Z,100483.34
2022-10-18T03:15:26.873Z,100494.09
2022-10-18T03:16:29.137Z,100490.63
2022-10-18T03:17:31.377Z,100486.19
2022-10-18T03:18:33.639Z,100493.81
2022-10-18T03:19:41.209Z,100489.47
2022-10-18T03:20:45.488Z,100481.97
2022-10-18T03:21:47.855Z,100474.38
2022-10-18T03:22:50.633Z,100481.91
2022-10-18T03:23:52.957Z,100475.22
2022-10-18T03:24:54.887Z,100469.41
2022-10-18T03:25:58.310Z,100473.47
2022-10-18T03:27:00.639Z,100461.78
2022-10-18T03:28:07.217Z,100475.66
2022-10-18T03:29:10.761Z,100467.66
2022-10-18T03:30:15.985Z,100464.56
2022-10-18T03:31:17.943Z,100458.06
2022-10-18T03:32:20.953Z,100456.53
2022-10-18T03:33:23.005Z,100452.69
2022-10-18T03:34:25.069Z,100436.13
2022-10-18T03:35:28.033Z,100440.41
2022-10-18T03:36:30.266Z,100437.81
2022-10-18T03:37:33.802Z,100438.88
2022-10-18T03:38:37.118Z,100434.38
2022-10-18T03:39:39.224Z,100446.59
2022-10-18T03:40:41.427Z,100433.66
2022-10-18T03:41:43.513Z,100440.72
2022-10-18T03:42:46.389Z,100433.06
2022-10-18T03:43:48.410Z,100438.66
2022-10-18T03:44:50.445Z,100432.66
2022-10-18T03:45:53.090Z,100434.13
2022-10-18T03:46:55.427Z,100436.44
2022-10-18T03:47:57.423Z,100430.97
2022-10-18T03:48:59.377Z,100423.78
2022-10-18T03:50:01.325Z,100416.31
2022-10-18T03:51:04.311Z,100432.44
2022-10-18T03:52:07.777Z,100422.63
2022-10-18T03:53:09.777Z,100426.13
2022-10-18T03:54:11.797Z,100423.78
2022-10-18T03:55:16.726Z,100431.66
2022-10-18T03:56:19.040Z,100425.38
2022-10-18T03:57:20.956Z,100420.63
2022-10-18T03:58:24.825Z,100412.91
2022-10-18T03:59:27.090Z,100408.69
2022-10-18T04:00:29.246Z,100400.09
2022-10-18T04:01:31.633Z,100402.78
2022-10-18T04:02:42.406Z,100399.25
2022-10-18T04:03:44.566Z,100396.63
2022-10-18T04:04:46.579Z,100386.91
2022-10-18T04:05:49.496Z,100391.56
2022-10-18T04:06:51.711Z,100391.47
2022-10-18T04:07:54.803Z,100395.41
2022-10-18T04:08:56.854Z,100389.59
2022-10-18T04:09:59.016Z,100387.59
2022-10-18T04:11:08.473Z,100385.66
2022-10-18T04:12:10.579Z,100400.78
2022-10-18T04:13:12.653Z,100400.03
2022-10-18T04:14:14.763Z,100387.75
2022-10-18T04:15:18.097Z,100389.34
2022-10-18T04:16:22.871Z,100390.50
2022-10-18T04:17:24.977Z,100390.44
2022-10-18T04:18:26.915Z,100383.69
2022-10-18T04:19:29.055Z,100377.81
2022-10-18T04:20:31.152Z,100385.22
2022-10-18T04:21:33.212Z,100380.38
2022-10-18T04:22:35.252Z,100379.78
2022-10-18T04:23:39.675Z,100384.00
2022-10-18T04:24:41.644Z,100377.88
2022-10-18T04:26:45.950Z,100384.66
2022-10-18T04:27:48.227Z,100383.13
2022-10-18T04:28:50.422Z,100381.81
2022-10-18T04:29:52.697Z,100383.75
2022-10-18T04:30:54.670Z,100383.13
2022-10-18T04:31:56.773Z,100377.59
2022-10-18T04:32:58.995Z,100371.31
2022-10-18T04:34:02.460Z,100369.78
2022-10-18T04:35:05.901Z,100363.25
2022-10-18T04:36:08.412Z,100372.22
2022-10-18T04:37:10.551Z,100369.50
2022-10-18T04:38:14.377Z,100369.88
2022-10-18T04:39:16.816Z,100363.56
2022-10-18T04:40:20.090Z,100362.03
2022-10-18T04:41:22.194Z,100362.03
2022-10-18T04:42:24.671Z,100357.34
2022-10-18T04:43:26.614Z,100362.88
2022-10-18T04:44:28.639Z,100367.69
2022-10-18T04:45:31.132Z,100363.69
2022-10-18T04:46:33.322Z,100361.41
2022-10-18T04:47:35.536Z,100360.41
2022-10-18T04:48:37.695Z,100358.50
2022-10-18T04:49:39.966Z,100352.34
2022-10-18T04:50:43.207Z,100353.38
2022-10-18T04:51:50.604Z,100351.25
2022-10-18T04:52:53.710Z,100349.06
2022-10-18T04:53:56.956Z,100338.31
2022-10-18T04:54:59.222Z,100342.50
2022-10-18T04:56:01.703Z,100344.06
2022-10-18T04:57:04.093Z,100339.13
2022-10-18T04:58:06.149Z,100341.66
2022-10-18T04:59:08.588Z,100347.59
2022-10-18T05:00:13.412Z,100334.53
2022-10-18T05:01:17.362Z,100342.38
2022-10-18T05:02:19.374Z,100348.03
2022-10-18T05:03:23.448Z,100342.63
2022-10-18T05:04:25.613Z,100340.41
2022-10-18T05:05:43.484Z,100333.06
2022-10-18T05:06:50.445Z,100328.94
2022-10-18T05:07:54.248Z,100330.00
2022-10-18T05:08:56.252Z,100333.19
2022-10-18T05:09:58.320Z,100329.69
2022-10-18T05:11:01.328Z,100329.88
2022-10-18T05:12:03.441Z,100330.34
2022-10-18T05:13:07.579Z,100332.69
2022-10-18T05:14:10.428Z,100323.28
2022-10-18T05:15:12.454Z,100331.22
2022-10-18T05:16:16.789Z,100325.31
2022-10-18T05:17:18.805Z,100336.59
2022-10-18T05:18:21.725Z,100328.63
2022-10-18T05:19:25.307Z,100334.78
2022-10-18T05:20:27.578Z,100329.94
2022-10-18T05:21:29.646Z,100332.31
2022-10-18T05:22:31.982Z,100337.00
2022-10-18T05:23:35.447Z,100339.56
2022-10-18T05:24:37.489Z,100324.59
2022-10-18T05:25:44.356Z,100332.50
2022-10-18T05:26:46.795Z,100338.22
2022-10-18T05:27:48.848Z,100341.28
2022-10-18T05:28:51.935Z,100344.22
2022-10-18T05:29:54.373Z,100342.50
2022-10-18T05:30:56.618Z,100341.16
2022-10-18T05:31:58.584Z,100337.13
2022-10-18T05:33:00.900Z,100331.84
2022-10-18T05:34:03.364Z,100345.84
2022-10-18T05:35:06.475Z,100340.19
2022-10-18T05:36:09.214Z,100341.09
2022-10-18T05:37:12.399Z,100350.56
2022-10-18T05:38:14.471Z,100355.63
2022-10-18T05:39:16.524Z,100354.66
2022-10-18T05:40:18.648Z,100351.59
2022-10-18T05:41:21.081Z,100351.84
2022-10-18T05:42:23.175Z,100355.28
2022-10-18T05:43:29.092Z,100354.41
2022-10-18T05:44:31.716Z,100351.41
2022-10-18T05:45:33.679Z,100340.84
2022-10-18T05:46:36.774Z,100347.19
2022-10-18T05:47:38.999Z,100340.47
2022-10-18T05:48:41.414Z,100347.97
2022-10-18T05:49:43.448Z,100345.97
2022-10-18T05:50:46.241Z,100348.28
2022-10-18T05:51:49.800Z,100347.78
2022-10-18T05:52:52.368Z,100344.53
2022-10-18T05:53:54.956Z,100347.41
2022-10-18T05:54:59.609Z,100341.66
2022-10-18T05:56:03.124Z,100344.59
2022-10-18T05:57:05.464Z,100352.09
2022-10-18T05:58:07.512Z,100349.69
2022-10-18T05:59:12.456Z,100349.69
2022-10-18T06:00:14.897Z,100345.72
2022-10-18T06:01:18.154Z,100348.16
2022-10-18T06:02:20.336Z,100354.53
2022-10-18T06:03:22.448Z,100340.34
2022-10-18T06:04:24.406Z,100339.75
2022-10-18T06:05:26.729Z,100335.31
2022-10-18T06:06:28.796Z,100327.53
2022-10-18T06:07:32.228Z,100330.66
2022-10-18T06:08:35.199Z,100319.78
2022-10-18T06:09:37.653Z,100312.75
2022-10-18T06:10:40.648Z,100309.28
2022-10-18T06:11:42.695Z,100314.63
2022-10-18T06:12:46.272Z,100315.06
2022-10-18T06:13:51.300Z,100301.97
2022-10-18T06:14:54.134Z,100298.16
2022-10-18T06:16:00.015Z,100304.63
2022-10-18T06:17:02.118Z,100302.13
2022-10-18T06:18:04.249Z,100303.34
2022-10-18T06:19:06.807Z,100306.03
2022-10-18T06:20:10.667Z,100304.63
2022-10-18T06:21:12.852Z,100291.69
2022-10-18T06:22:14.867Z,100289.97
2022-10-18T06:23:20.649Z,100297.22
2022-10-18T06:24:22.954Z,100286.03
2022-10-18T06:25:25.134Z,100292.41
2022-10-18T06:26:28.764Z,100287.69
2022-10-18T06:27:32.142Z,100281.03
2022-10-18T06:28:36.449Z,100280.31
2022-10-18T06:29:40.038Z,100272.03
2022-10-18T06:30:44.849Z,100275.63
2022-10-18T06:31:47.160Z,100268.94
2022-10-18T06:32:51.471Z,100265.38
2022-10-18T06:33:58.984Z,100257.53
2022-10-18T06:35:01.088Z,100262.13
2022-10-18T06:36:06.415Z,100254.53
2022-10-18T06:37:09.485Z,100255.28
2022-10-18T06:38:11.479Z,100259.38
2022-10-18T06:39:15.413Z,100256.16
2022-10-18T06:40:18.065Z,100242.06
2022-10-18T06:41:23.173Z,100233.59
2022-10-18T06:42:25.548Z,100236.00
2022-10-18T06:43:29.864Z,100229.19
2022-10-18T06:44:34.666Z,100229.25
2022-10-18T06:45:36.957Z,100227.69
2022-10-18T06:46:39.461Z,100216.53
2022-10-18T06:47:41.665Z,100215.88
2022-10-18T06:48:45.063Z,100212.34
2022-10-18T06:49:47.276Z,100205.16
2022-10-18T06:50:54.688Z,100192.13
2022-10-18T06:51:56.643Z,100190.25
2022-10-18T06:52:58.718Z,100181.22
2022-10-18T06:54:18.641Z,100166.16
2022-10-18T06:55:21.137Z,100154.75
2022-10-18T06:56:24.946Z,100162.44
2022-10-18T06:57:27.539Z,100141.91
2022-10-18T06:58:30.920Z,100134.78
2022-10-18T06:59:32.891Z,100122.56
2022-10-18T07:00:35.865Z,100125.78
2022-10-18T07:01:38.019Z,100139.59
2022-10-18T07:02:41.415Z,100162.81
2022-10-18T07:03:44.359Z,100154.53
2022-10-18T07:04:46.546Z,100148.63
2022-10-18T07:05:49.612Z,100146.41
2022-10-18T07:06:56.642Z,100164.16
2022-10-18T07:07:59.441Z,100165.75
2022-10-18T07:09:03.224Z,100143.84
2022-10-18T07:10:06.158Z,100132.97
2022-10-18T07:11:09.241Z,100125.47
2022-10-18T07:12:12.254Z,100120.72
2022-10-18T07:13:31.362Z,100110.03
2022-10-18T07:14:34.268Z,100103.34
2022-10-18T07:15:38.707Z,100084.47
2022-10-18T07:16:44.375Z,100091.47
2022-10-18T07:17:46.584Z,100097.41
2022-10-18T07:18:54.378Z,100104.94
2022-10-18T07:19:56.411Z,100117.56
2022-10-18T07:21:01.760Z,100100.91
2022-10-18T07:22:03.930Z,100068.47
2022-10-18T07:23:08.622Z,100064.97
2022-10-18T07:24:10.657Z,100068.03
2022-10-18T07:25:12.827Z,100069.28
2022-10-18T07:26:30.033Z,100065.28
2022-10-18T07:27:32.334Z,100063.97
2022-10-18T07:28:35.481Z,100053.50
2022-10-18T07:29:41.080Z,100055.19
2022-10-18T07:30:44.690Z,100056.84
2022-10-18T07:31:46.734Z,100041.09
2022-10-18T07:32:51.069Z,100040.94
2022-10-18T07:33:54.748Z,100034.72
2022-10-18T07:34:57.034Z,100038.69
2022-10-18T07:36:06.203Z,100024.31
2022-10-18T07:37:11.180Z,100016.41
2022-10-18T07:38:17.760Z,100016.47
2022-10-18T07:39:20.951Z,100004.50
2022-10-18T07:40:23.279Z,99996.63
2022-10-18T07:41:25.884Z,99993.97
2022-10-18T07:42:29.027Z,99978.63
2022-10-18T07:43:31.260Z,99979.38
2022-10-18T07:44:33.190Z,99977.03
2022-10-18T07:45:35.422Z,99962.78
2022-10-18T07:46:37.699Z,99959.28
2022-10-18T07:47:40.526Z,99960.47
2022-10-18T07:48:43.330Z,99951.75
2022-10-18T07:49:45.544Z,99954.13
2022-10-18T07:50:49.939Z,99947.88
2022-10-18T07:51:54.047Z,99943.78
2022-10-18T07:52:56.062Z,99939.13
2022-10-18T07:53:58.399Z,99942.69
2022-10-18T07:55:00.617Z,99931.56
2022-10-18T07:56:08.774Z,99923.63
2022-10-18T07:57:12.181Z,99925.88
2022-10-18T07:58:15.676Z,99924.34
2022-10-18T07:59:21.007Z,99916.03
2022-10-18T08:00:23.116Z,99900.19
2022-10-18T08:01:25.759Z,99901.84
2022-10-18T08:02:27.992Z,99894.72
2022-10-18T08:03:31.598Z,99895.44
2022-10-18T08:04:34.085Z,99898.59
2022-10-18T08:05:37.831Z,99888.41
2022-10-18T08:06:42.527Z,99883.66
2022-10-18T08:07:46.833Z,99883.28
2022-10-18T08:08:50.051Z,99878.84
2022-10-18T08:09:52.060Z,99872.50
2022-10-18T08:10:54.421Z,99865.38
2022-10-18T08:11:56.392Z,99859.88
2022-10-18T08:12:58.611Z,99854.34
2022-10-18T08:14:00.661Z,99842.09
2022-10-18T08:15:04.543Z,99836.53
2022-10-18T08:16:09.738Z,99829.06
2022-10-18T08:17:11.752Z,99839.72
2022-10-18T08:18:13.933Z,99829.41
2022-10-18T08:19:15.948Z,99825.13
2022-10-18T08:20:30.422Z,99824.31
2022-10-18T08:21:33.577Z,99818.06
2022-10-18T08:22:36.352Z,99828.31
2022-10-18T08:23:39.425Z,99801.13
2022-10-18T08:24:42.900Z,99794.00
2022-10-18T08:25:44.860Z,99788.09
2022-10-18T08:26:48.991Z,99788.88
2022-10-18T08:27:51.053Z,99778.25
2022-10-18T08:28:54.334Z,99776.25
2022-10-18T08:30:06.155Z,99771.13
2022-10-18T08:31:13.332Z,99764.06
2022-10-18T08:32:16.361Z,99756.47
2022-10-18T08:33:18.928Z,99739.91
2022-10-18T08:34:20.969Z,99737.56
2022-10-18T08:35:24.356Z,99718.19
2022-10-18T08:36:26.303Z,99705.19
2022-10-18T08:37:29.538Z,99701.22
2022-10-18T08:38:33.338Z,99692.91
2022-10-18T08:39:35.318Z,99683.00
2022-10-18T08:40:43.609Z,99675.13
2022-10-18T08:42:12.631Z,99676.75
2022-10-18T08:44:45.815Z,99662.94
2022-10-18T08:45:51.152Z,99651.47
2022-10-18T08:47:02.865Z,99626.97
2022-10-18T08:48:06.971Z,99610.47
2022-10-18T08:49:28.613Z,99618.31
2022-10-18T08:50:37.928Z,99604.44
2022-10-18T08:51:45.181Z,99585.94
2022-10-18T08:53:27.503Z,99597.38
2022-10-18T08:54:37.634Z,99603.25
2022-10-18T08:55:39.373Z,99590.66
2022-10-18T08:56:56.685Z,99574.91
2022-10-18T08:57:59.190Z,99566.97
2022-10-18T08:59:04.272Z,99559.06
2022-10-18T09:00:17.360Z,99549.56
2022-10-18T09:03:05.610Z,99535.31
2022-10-18T09:04:16.471Z,99537.69
2022-10-18T09:05:53.861Z,99548.78
2022-10-18T09:07:22.078Z,99515.66
2022-10-18T09:08:52.497Z,99515.66
2022-10-18T09:10:05.193Z,99522.00
2022-10-18T09:11:15.999Z,99537.75
2022-10-18T09:12:36.634Z,99562.25
2022-10-18T09:13:41.725Z,99573.25
2022-10-18T09:15:01.490Z,99570.84
2022-10-18T09:16:17.648Z,99566.16
2022-10-18T09:17:22.392Z,99574.41
2022-10-18T09:18:38.984Z,99575.63
2022-10-18T09:19:55.216Z,99569.34
2022-10-18T09:21:07.217Z,99587.16
2022-10-18T09:22:14.546Z,99578.09
2022-10-18T09:23:21.894Z,99561.16
2022-10-18T09:24:53.474Z,99563.94
2022-10-18T09:25:58.900Z,99559.59
2022-10-18T09:27:09.721Z,99565.53
2022-10-18T09:28:34.482Z,99560.78
2022-10-18T09:29:51.330Z,99548.97
2022-10-18T09:30:59.779Z,99552.13
2022-10-18T09:32:14.686Z,99554.91
2022-10-18T09:33:54.888Z,99544.63
2022-10-18T09:35:14.381Z,99531.59
2022-10-18T09:36:33.802Z,99541.09
2022-10-18T09:37:38.698Z,99522.97
2022-10-18T09:39:05.933Z,99520.19
2022-10-18T09:40:23.248Z,99507.16
2022-10-18T09:41:40.351Z,99489.81
2022-10-18T09:42:55.339Z,99489.00
2022-10-18T09:43:59.982Z,99484.69
2022-10-18T09:45:30.960Z,99484.72
2022-10-18T09:46:41.270Z,99498.16
2022-10-18T09:47:54.922Z,99512.34
2022-10-18T09:49:05.172Z,99511.13
2022-10-18T09:50:28.126Z,99512.69
2022-10-18T09:51:44.715Z,99501.31
2022-10-18T09:52:58.752Z,99508.03
2022-10-18T09:54:30.170Z,99496.97
2022-10-18T09:55:39.104Z,99478.81
2022-10-18T09:56:52.705Z,99485.16
2022-10-18T09:58:02.913Z,99490.69
2022-10-18T09:59:05.490Z,99474.09
2022-10-18T10:00:16.345Z,99472.09
2022-10-18T10:01:26.494Z,99462.25
2022-10-18T10:02:28.594Z,99451.19
2022-10-18T10:03:31.667Z,99454.72
2022-10-18T10:04:33.762Z,99458.69
2022-10-18T10:05:35.792Z,99463.03
2022-10-18T10:06:39.269Z,99462.25
2022-10-18T10:07:48.612Z,99461.47
2022-10-18T10:09:07.762Z,99456.31
2022-10-18T10:10:24.974Z,99459.88
2022-10-18T10:11:38.882Z,99462.25
2022-10-18T10:12:41.484Z,99448.41
2022-10-18T10:13:46.103Z,99452.75
2022-10-18T10:14:48.114Z,99457.50
2022-10-18T10:16:00.412Z,99451.97
2022-10-18T10:17:24.515Z,99445.25
2022-10-18T10:18:39.333Z,99449.19
2022-10-18T10:20:04.945Z,99440.13
2022-10-18T10:21:13.418Z,99445.25
2022-10-18T10:22:15.635Z,99441.66
2022-10-18T10:23:36.307Z,99437.72
2022-10-18T10:24:51.729Z,99436.91
2022-10-18T10:26:01.435Z,99438.88
2022-10-18T10:27:14.598Z,99428.22
2022-10-18T10:28:20.183Z,99430.97
2022-10-18T10:29:48.174Z,99420.31
2022-10-18T10:30:52.920Z,99413.53
2022-10-18T10:32:04.638Z,99415.94
2022-10-18T10:33:34.402Z,99420.25
2022-10-18T10:34:38.826Z,99411.56
2022-10-18T10:35:53.164Z,99413.53
2022-10-18T10:36:56.071Z,99410.34
2022-10-18T10:37:58.467Z,99403.63
2022-10-18T10:39:11.999Z,99405.22
2022-10-18T10:40:28.481Z,99407.56
2022-10-18T10:42:48.733Z,99407.19
2022-10-18T10:43:51.634Z,99402.41
2022-10-18T10:44:55.555Z,99402.03
2022-10-18T10:46:01.871Z,99390.97
2022-10-18T10:47:04.647Z,99384.59
2022-10-18T10:48:14.449Z,99386.94
2022-10-18T10:49:46.303Z,99378.63
2022-10-18T10:50:57.332Z,99386.53
2022-10-18T10:52:25.643Z,99374.25
2022-10-18T10:53:51.066Z,99379.00
2022-10-18T10:55:05.412Z,99385.31
2022-10-18T10:56:54.764Z,99386.97
2022-10-18T10:57:56.887Z,99382.13
2022-10-18T10:59:08.662Z,99370.25
2022-10-18T11:00:39.907Z,99383.25
2022-10-18T11:01:42.202Z,99384.44
2022-10-18T11:02:55.402Z,99374.53
2022-10-18T11:04:24.316Z,99379.28
2022-10-18T11:05:29.544Z,99373.66
2022-10-18T11:06:32.970Z,99375.56
2022-10-18T11:07:44.899Z,99369.19
2022-10-18T11:08:47.322Z,99369.97
2022-10-18T11:10:10.892Z,99359.56
2022-10-18T11:11:28.044Z,99350.03
2022-10-18T11:12:38.292Z,99343.59
2022-10-18T11:14:21.057Z,99347.16
2022-10-18T11:15:42.223Z,99339.13
2022-10-18T11:17:06.957Z,99341.88
2022-10-18T11:18:30.613Z,99341.03
2022-10-18T11:19:40.294Z,99334.16
2022-10-18T11:20:44.450Z,99334.19
2022-10-18T11:21:47.045Z,99336.84
2022-10-18T11:23:33.715Z,99340.03
2022-10-18T11:24:36.479Z,99354.69
2022-10-18T11:25:59.074Z,99356.66
2022-10-18T11:27:18.747Z,99351.03
2022-10-18T11:29:05.806Z,99361.72
2022-10-18T11:30:31.046Z,99351.31
2022-10-18T11:31:39.650Z,99353.28
2022-10-18T11:33:09.423Z,99358.84
2022-10-18T11:34:42.814Z,99366.72
2022-10-18T11:36:02.851Z,99349.22
2022-10-18T11:37:29.431Z,99359.50
2022-10-18T11:38:46.142Z,99360.66
2022-10-18T11:40:25.081Z,99351.13
2022-10-18T11:41:31.707Z,99339.16
2022-10-18T11:43:14.854Z,99347.47
2022-10-18T11:44:30.317Z,99346.69
2022-10-18T11:45:39.142Z,99356.13
2022-10-18T11:47:14.679Z,99354.47
2022-10-18T11:48:42.582Z,99354.84
2022-10-18T11:50:02.966Z,99351.22
2022-10-18T11:51:34.116Z,99352.88
2022-10-18T11:53:08.276Z,99351.22
2022-10-18T11:54:34.411Z,99354.00
2022-10-18T11:56:00.411Z,99351.13
2022-10-18T11:57:18.331Z,99351.88
2022-10-18T11:58:46.238Z,99350.31
2022-10-18T12:00:16.173Z,99355.34
2022-10-18T12:01:32.130Z,99354.19
2022-10-18T12:03:13.057Z,99350.53
2022-10-18T12:04:23.541Z,99350.94
2022-10-18T12:05:25.776Z,99347.69
2022-10-18T12:06:34.014Z,99347.69
2022-10-18T12:08:05.824Z,99350.09
2022-10-18T12:09:11.900Z,99349.66
2022-10-18T12:10:31.467Z,99349.13
2022-10-18T12:12:23.570Z,99343.97
2022-10-18T12:13:34.164Z,99344.44
2022-10-18T12:14:55.057Z,99356.66
2022-10-18T12:15:57.804Z,99341.91
2022-10-18T12:17:41.651Z,99350.63
2022-10-18T12:18:32.861Z,99357.88
2022-10-18T12:19:35.537Z,99347.94
2022-10-18T12:20:43.570Z,99343.63
2022-10-18T12:21:47.060Z,99349.03
2022-10-18T12:23:05.766Z,99351.00
2022-10-18T12:24:11.261Z,99351.34
2022-10-18T12:25:15.444Z,99350.53
2022-10-18T12:26:18.014Z,99352.06
2022-10-18T12:27:30.868Z,99345.88
2022-10-18T12:28:32.867Z,99353.69
2022-10-18T12:29:51.661Z,99358.44
2022-10-18T12:31:17.084Z,99349.28
2022-10-18T12:32:25.246Z,99348.09
2022-10-18T12:33:34.488Z,99359.16
2022-10-18T12:34:58.792Z,99359.16
2022-10-18T12:36:21.674Z,99359.53
2022-10-18T12:37:51.925Z,99353.09
2022-10-18T12:38:59.753Z,99351.19
2022-10-18T12:40:22.513Z,99352.78
2022-10-18T12:41:34.877Z,99355.13
2022-10-18T12:42:44.353Z,99356.75
2022-10-18T12:43:58.577Z,99358.56
2022-10-18T12:45:13.938Z,99361.78
2022-10-18T12:46:16.250Z,99362.16
2022-10-18T12:47:26.457Z,99350.28
2022-10-18T12:48:48.521Z,99364.34
2022-10-18T12:50:04.768Z,99354.75
2022-10-18T12:51:09.529Z,99351.06
2022-10-18T12:52:23.620Z,99351.06
2022-10-18T12:53:28.078Z,99354.88
2022-10-18T12:54:32.730Z,99353.38
2022-10-18T12:55:40.527Z,99356.44
2022-10-18T12:56:46.961Z,99350.13
2022-10-18T12:57:52.023Z,99346.84
2022-10-18T12:59:13.925Z,99344.44
2022-10-18T13:00:42.072Z,99340.50
2022-10-18T13:01:50.907Z,99347.63
2022-10-18T13:03:18.830Z,99342.88
2022-10-18T13:04:39.127Z,99347.72
2022-10-18T13:06:07.728Z,99354.75
2022-10-18T13:07:19.874Z,99348.75
2022-10-18T13:08:27.539Z,99360.22
2022-10-18T13:09:30.860Z,99360.75
2022-10-18T13:10:37.058Z,99363.91
2022-10-18T13:11:39.163Z,99369.16
2022-10-18T13:12:44.090Z,99374.28
2022-10-18T13:14:08.769Z,99367.56